HSKO2: Arkansas River, Haskell, OK

                                SHEF ID:       HSKO2     Arkansas River near Haskell, OK
STATION TYPE:
Regulating: Stage = 18.00, Flow = 125429

PRECIP STAGE STAGE(2) RIV-FLOW BAT-LOAD
in ft ft cfs volt
Ccp-Rev Ccp-Rev Ccp-Rev Ccp-Rev Ccp-Rev
(America/Chicago)
04/29 00:00 0.00 4.96 4.98 5705 12.65
04/29 01:00 0.00 4.95 5.01 5676 12.65
04/29 02:00 0.00 4.97 4.98 5734 12.65
04/29 03:00 0.00 4.99 5.03 5792 12.57
04/29 04:00 0.00 5.03 5.05 5921 12.57
04/29 05:00 0.00 5.12 5.16 6227 12.57
04/29 06:00 0.00 5.22 5.26 6577 12.57
04/29 07:00 0.00 5.28 5.33 6791 12.49
04/29 08:00 0.00 5.36 5.41 7085 12.65
04/29 09:00 0.00 5.42 5.47 7326 13.53
04/29 10:00 0.00 5.46 5.50 7489 13.60
04/29 11:00 0.00 5.42 5.48 7326 13.60
04/29 12:00 0.00 5.40 5.44 7245 13.53
04/29 13:00 0.00 5.36 5.43 7085 13.53
04/29 14:00 0.00 5.30 5.34 6863 13.60
04/29 15:00 0.00 5.24 5.29 6648 13.60
04/29 16:00 0.00 5.18 5.25 6436 13.44
04/29 17:00 0.00 5.15 5.21 6331 13.29
04/29 18:00 0.00 5.11 5.18 6193 13.05
04/29 19:00 0.00 5.11 5.15 6193 13.05
04/29 20:00 0.00 5.09 5.16 6124 13.05
04/29 21:00 0.00 5.09 5.12 6124 12.81
04/29 22:00 0.00 5.08 5.08 6090 12.65
04/29 23:00 0.00 5.07 5.12 6056 12.65
Data processed at Thu 30Apr2026 04:13 GMT

NOTICE: If you are parsing this page

Please convert to using our Data API. Starting early 2026 we will be migrating to: https://water.usace.army.mil with modern pages rendered in JavaScript. When this migration completes you will no longer be able to scrape this page! CWMSDataAPI (CDA)

Timeseries IDs (TSIDs)

TSIDs used from left to right in the data table
HASK.Precip-Inc.Total.1Hour.1Hour.Ccp-Rev
HASK.Stage.Inst.1Hour.0.Ccp-Rev
HASK.Stage-Alt.Inst.1Hour.0.Ccp-Rev
HASK.Flow.Inst.1Hour.0.Ccp-Rev
HASK.Volt-Battery Load.Inst.1Hour.0.Ccp-Rev

                            

All information presented herein is the property of the government of the United States of America and may be revised or deleted at any time without prior notice. Dissemination of this information without the expressed written consent of the Public Affairs Office, Tulsa District U.S. Army Corps of Engineers is strictly prohibited. These data are gathered electronically and, as presented, have NOT undergone any form of quality control. These data are NOT guaranteed to be valid or correct.